Time;durP1;ratioP1;P1;durP2;ratioP2;P2;SDS_P1;SDS_P2;PMS_P1;PMS_P2;Temp;Humidity;BMP_temperature;BMP_pressure;BME280_temperature;BME280_humidity;BME280_pressure;Samples;Min_cycle;Max_cycle;Signal;HPM_P1;HPM_P2
2023/03/15 00:01:45;;;;;;;1.13;0.45;;;15.20;51.50;;;;;;6214515;23;20596;-74
2023/03/15 00:04:11;;;;;;;1.58;0.50;;;15.20;51.60;;;;;;6223276;23;20063;-74
2023/03/15 00:06:37;;;;;;;1.80;0.40;;;15.20;51.50;;;;;;6215052;23;20371;-74
2023/03/15 00:09:03;;;;;;;1.05;0.50;;;15.20;51.60;;;;;;6224628;23;20001;-74
2023/03/15 00:11:32;;;;;;;0.93;0.45;;;15.10;51.50;;;;;;6224695;23;20000;-74
2023/03/15 00:13:58;;;;;;;1.13;0.43;;;15.20;51.50;;;;;;6224254;23;20099;-74
2023/03/15 00:16:25;;;;;;;1.35;0.40;;;15.10;51.50;;;;;;6224738;23;20300;-74
2023/03/15 00:18:53;;;;;;;1.48;0.50;;;15.10;51.50;;;;;;6224478;23;20078;-74
2023/03/15 00:21:19;;;;;;;0.55;0.30;;;15.10;51.60;;;;;;6224587;23;19996;-74
2023/03/15 00:23:44;;;;;;;0.75;0.38;;;15.10;51.70;;;;;;6214836;23;20486;-74
2023/03/15 00:26:10;;;;;;;1.13;0.50;;;15.10;51.70;;;;;;6224430;23;20091;-74
2023/03/15 00:28:36;;;;;;;0.82;0.52;;;15.10;51.70;;;;;;6214825;23;20320;-74
2023/03/15 00:31:04;;;;;;;0.95;0.50;;;15.10;51.60;;;;;;6224416;23;19992;-74
2023/03/15 00:33:33;;;;;;;1.33;0.52;;;15.20;51.70;;;;;;6224739;23;20031;-74
2023/03/15 00:36:02;;;;;;;0.80;0.40;;;15.20;51.60;;;;;;6224434;23;20279;-74
2023/03/15 00:38:27;;;;;;;0.50;0.40;;;15.20;51.70;;;;;;6224829;23;20416;-74
2023/03/15 00:40:53;;;;;;;1.80;0.60;;;15.20;51.80;;;;;;6224376;23;20005;-74
2023/03/15 00:43:18;;;;;;;0.93;0.50;;;15.20;51.80;;;;;;6224289;23;20051;-74
2023/03/15 00:45:44;;;;;;;1.80;0.43;;;15.20;51.70;;;;;;6224294;23;20000;-74
2023/03/15 00:48:10;;;;;;;0.50;0.40;;;15.20;51.70;;;;;;6224370;23;19996;-74
2023/03/15 00:50:35;;;;;;;0.85;0.40;;;15.20;51.80;;;;;;6224510;23;20000;-74
2023/03/15 00:53:01;;;;;;;1.02;0.30;;;15.20;51.80;;;;;;6224400;23;20007;-74
2023/03/15 00:55:27;;;;;;;0.75;0.25;;;15.20;51.90;;;;;;6224431;23;20027;-74
2023/03/15 00:57:52;;;;;;;1.85;0.50;;;15.20;52.50;;;;;;6224484;23;19996;-74
2023/03/15 01:00:23;;;;;;;0.85;0.40;;;15.20;51.80;;;;;;6224263;23;20005;-74
2023/03/15 01:02:49;;;;;;;1.40;0.40;;;15.20;51.90;;;;;;6224213;23;20040;-74
2023/03/15 01:05:15;;;;;;;0.65;0.20;;;15.20;51.90;;;;;;6224400;23;20000;-74
2023/03/15 01:07:44;;;;;;;0.52;0.25;;;15.20;51.90;;;;;;6214762;23;20070;-74
2023/03/15 01:10:11;;;;;;;1.95;0.40;;;15.20;51.90;;;;;;6224375;23;20486;-74
2023/03/15 01:12:37;;;;;;;0.32;0.20;;;15.20;51.90;;;;;;6224422;23;19992;-74
2023/03/15 01:15:04;;;;;;;1.15;0.52;;;15.20;52.00;;;;;;6224362;23;20001;-73
2023/03/15 01:17:29;;;;;;;2.05;0.30;;;15.20;52.00;;;;;;6224369;23;20436;-74
2023/03/15 01:19:55;;;;;;;1.98;0.47;;;15.20;52.00;;;;;;6224228;23;20042;-74
2023/03/15 01:22:21;;;;;;;1.15;0.30;;;15.20;52.00;;;;;;6224242;23;20072;-74
2023/03/15 01:24:46;;;;;;;1.05;0.40;;;15.20;52.00;;;;;;6224948;23;20446;-74
2023/03/15 01:27:12;;;;;;;1.15;0.30;;;15.20;52.10;;;;;;6226227;23;20012;-74
2023/03/15 01:29:38;;;;;;;0.70;0.38;;;15.20;51.90;;;;;;6226347;23;20001;-75
2023/03/15 01:32:04;;;;;;;0.73;0.32;;;15.20;51.90;;;;;;6226129;23;19993;-74
2023/03/15 01:34:29;;;;;;;0.70;0.22;;;15.20;52.00;;;;;;6226137;23;20050;-74
2023/03/15 01:36:55;;;;;;;0.60;0.35;;;15.20;52.00;;;;;;6226092;23;20075;-74
2023/03/15 01:39:21;;;;;;;0.73;0.30;;;15.20;52.00;;;;;;6225857;23;20004;-74
2023/03/15 01:41:46;;;;;;;0.50;0.30;;;15.20;52.10;;;;;;6216352;23;19993;-74
2023/03/15 01:44:17;;;;;;;0.85;0.40;;;15.20;52.70;;;;;;6226078;23;20135;-74
2023/03/15 01:46:43;;;;;;;0.93;0.50;;;15.20;52.10;;;;;;6226215;23;20003;-74
2023/03/15 01:49:27;;;;;;;0.82;0.38;;;15.20;52.10;;;;;;6225978;23;20375;-74
2023/03/15 01:52:05;;;;;;;0.50;0.30;;;15.20;52.10;;;;;;6226062;23;20327;-74
2023/03/15 01:54:36;;;;;;;0.52;0.20;;;15.20;52.10;;;;;;6225941;23;20003;-74
2023/03/15 01:57:11;;;;;;;1.92;0.30;;;15.20;52.20;;;;;;6226109;23;20000;-74
2023/03/15 01:59:46;;;;;;;0.70;0.30;;;15.20;52.20;;;;;;6225948;23;20030;-74
2023/03/15 02:02:13;;;;;;;1.73;0.30;;;15.20;52.10;;;;;;6215791;23;20005;-74
2023/03/15 02:04:48;;;;;;;0.22;0.20;;;15.20;52.20;;;;;;6214795;23;20001;-74
2023/03/15 02:07:16;;;;;;;1.15;0.40;;;15.20;52.20;;;;;;6216158;23;20048;-74
2023/03/15 02:10:05;;;;;;;1.35;0.40;;;15.20;52.20;;;;;;6216060;23;19997;-74
2023/03/15 02:12:37;;;;;;;0.30;0.20;;;15.20;52.30;;;;;;6215609;23;19996;-74
2023/03/15 02:15:05;;;;;;;0.45;0.32;;;15.20;52.20;;;;;;6216125;23;20328;-74
2023/03/15 02:17:42;;;;;;;0.10;0.10;;;15.20;52.20;;;;;;6215947;23;20007;-74
2023/03/15 02:20:35;;;;;;;0.30;0.30;;;15.20;52.20;;;;;;6215585;23;20585;-74
2023/03/15 02:23:01;;;;;;;0.93;0.30;;;15.20;52.20;;;;;;6215768;23;20467;-74
2023/03/15 02:25:33;;;;;;;1.45;0.32;;;15.20;52.30;;;;;;6215819;23;19997;-74
2023/03/15 02:28:00;;;;;;;0.50;0.30;;;15.20;52.30;;;;;;6215973;23;20316;-74
2023/03/15 02:30:26;;;;;;;0.38;0.30;;;15.20;52.70;;;;;;6215439;23;20443;-74
2023/03/15 02:32:52;;;;;;;0.63;0.20;;;15.20;52.20;;;;;;6215822;23;20003;-74
2023/03/15 02:35:27;;;;;;;0.70;0.35;;;15.20;52.20;;;;;;6225494;23;20321;-75
2023/03/15 02:37:53;;;;;;;0.38;0.38;;;15.20;52.30;;;;;;6225115;23;20007;-74
2023/03/15 02:40:22;;;;;;;0.63;0.35;;;15.10;52.90;;;;;;6225457;23;20040;-74
2023/03/15 02:42:52;;;;;;;0.93;0.28;;;15.20;52.30;;;;;;6225574;23;20000;-74
2023/03/15 02:45:19;;;;;;;0.73;0.20;;;15.10;52.40;;;;;;6225558;23;20015;-74
2023/03/15 02:47:47;;;;;;;0.20;0.10;;;15.20;52.40;;;;;;6225449;23;19993;-74
2023/03/15 02:50:12;;;;;;;0.70;0.30;;;15.10;52.30;;;;;;6225452;23;20003;-74
2023/03/15 02:52:38;;;;;;;1.23;0.22;;;15.10;52.40;;;;;;6223078;23;20001;-74
2023/03/15 02:55:04;;;;;;;0.52;0.20;;;15.10;52.40;;;;;;6225362;23;20621;-74
2023/03/15 02:57:29;;;;;;;0.20;0.20;;;15.10;52.30;;;;;;6215406;23;20000;-74
2023/03/15 02:59:56;;;;;;;0.73;0.50;;;15.10;52.30;;;;;;6225337;23;20008;-74
2023/03/15 03:02:22;;;;;;;0.20;0.20;;;15.10;52.40;;;;;;6215113;23;20087;-74
2023/03/15 03:04:48;;;;;;;0.68;0.20;;;15.10;52.40;;;;;;6225223;23;20007;-74
2023/03/15 03:07:14;;;;;;;0.80;0.32;;;15.10;52.40;;;;;;6225122;23;19997;-74
2023/03/15 03:09:40;;;;;;;0.22;0.22;;;15.10;52.30;;;;;;6225105;23;20119;-74
2023/03/15 03:12:06;;;;;;;0.25;0.20;;;15.10;52.40;;;;;;6225217;23;20075;-74
2023/03/15 03:14:31;;;;;;;0.65;0.55;;;15.10;52.40;;;;;;6224965;23;20162;-74
2023/03/15 03:16:57;;;;;;;0.55;0.20;;;15.10;52.40;;;;;;6225001;23;20024;-74
2023/03/15 03:19:24;;;;;;;0.30;0.15;;;15.10;52.40;;;;;;6225162;23;20000;-74
2023/03/15 03:21:52;;;;;;;0.68;0.20;;;15.10;52.40;;;;;;6214864;23;20004;-73
2023/03/15 03:24:18;;;;;;;0.80;0.20;;;15.10;52.40;;;;;;6225116;23;20071;-74
2023/03/15 03:26:47;;;;;;;0.65;0.17;;;15.10;52.50;;;;;;6224941;23;20072;-74
2023/03/15 03:29:16;;;;;;;0.38;0.38;;;15.00;52.40;;;;;;6224979;23;20004;-74
2023/03/15 03:31:43;;;;;;;2.40;0.28;;;15.00;52.50;;;;;;6225002;23;20482;-74
2023/03/15 03:34:11;;;;;;;0.73;0.30;;;15.00;52.40;;;;;;6225014;23;20131;-74
2023/03/15 03:36:36;;;;;;;0.30;0.20;;;15.00;52.50;;;;;;6225076;23;20068;-74
2023/03/15 03:39:02;;;;;;;0.40;0.20;;;15.00;52.40;;;;;;6225245;23;20035;-74
2023/03/15 03:41:27;;;;;;;0.20;0.20;;;15.00;52.50;;;;;;6225005;23;20000;-74
2023/03/15 03:43:53;;;;;;;0.75;0.30;;;15.00;52.40;;;;;;6223327;23;20379;-74
2023/03/15 03:46:19;;;;;;;0.32;0.20;;;15.00;52.40;;;;;;6224837;23;20004;-74
2023/03/15 03:48:44;;;;;;;0.55;0.20;;;15.00;52.40;;;;;;6224640;23;20028;-74
2023/03/15 03:51:10;;;;;;;0.30;0.30;;;15.00;52.50;;;;;;6224777;23;19993;-74
2023/03/15 03:53:36;;;;;;;0.30;0.22;;;15.00;52.50;;;;;;6224937;23;20007;-74
2023/03/15 03:56:07;;;;;;;0.30;0.25;;;15.00;52.50;;;;;;6224926;23;20068;-74
2023/03/15 03:58:33;;;;;;;0.50;0.20;;;15.00;52.50;;;;;;6224799;23;19996;-74
2023/03/15 04:00:59;;;;;;;0.82;0.50;;;15.00;61.20;;;;;;6224473;23;20023;-74
2023/03/15 04:03:28;;;;;;;0.57;0.40;;;15.00;52.50;;;;;;6224603;23;20013;-74
2023/03/15 04:05:57;;;;;;;0.20;0.20;;;15.00;52.60;;;;;;6224570;23;19997;-74
2023/03/15 04:08:25;;;;;;;1.58;0.50;;;15.00;53.20;;;;;;6224803;23;20000;-74
2023/03/15 04:10:55;;;;;;;0.35;0.22;;;15.00;52.60;;;;;;6224681;23;20440;-74
2023/03/15 04:13:22;;;;;;;0.55;0.30;;;15.00;52.50;;;;;;6224875;23;20008;-74
2023/03/15 04:15:48;;;;;;;0.90;0.30;;;14.90;52.60;;;;;;6214587;23;20000;-74
2023/03/15 04:18:14;;;;;;;0.40;0.30;;;14.90;52.50;;;;;;6224594;23;20050;-74
2023/03/15 04:20:45;;;;;;;0.52;0.20;;;14.90;52.50;;;;;;6224434;23;20443;-74
2023/03/15 04:23:15;;;;;;;0.63;0.20;;;15.00;52.60;;;;;;6214731;23;19992;-74
2023/03/15 04:25:41;;;;;;;0.30;0.30;;;14.90;52.60;;;;;;6224528;23;20047;-74
2023/03/15 04:28:09;;;;;;;0.40;0.20;;;14.90;52.50;;;;;;6224447;23;20111;-74
2023/03/15 04:30:35;;;;;;;0.38;0.20;;;15.00;52.50;;;;;;6214812;23;20001;-74
2023/03/15 04:33:02;;;;;;;0.45;0.30;;;14.90;52.50;;;;;;6224476;23;19993;-74
2023/03/15 04:35:36;;;;;;;0.70;0.28;;;14.90;52.50;;;;;;6224413;23;20363;-74
2023/03/15 04:38:03;;;;;;;0.50;0.30;;;14.90;52.60;;;;;;6224317;23;20000;-74
2023/03/15 04:40:29;;;;;;;0.65;0.25;;;14.90;52.60;;;;;;6214621;23;20009;-74
2023/03/15 04:42:55;;;;;;;0.32;0.20;;;14.90;52.60;;;;;;6224415;23;19993;-74
2023/03/15 04:45:25;;;;;;;0.68;0.40;;;14.90;52.60;;;;;;6224517;23;20023;-74
2023/03/15 04:47:53;;;;;;;0.90;0.25;;;14.90;52.60;;;;;;6224488;23;20020;-74
2023/03/15 04:50:20;;;;;;;0.77;0.52;;;14.80;52.50;;;;;;6224488;23;20001;-74
2023/03/15 04:52:47;;;;;;;0.32;0.20;;;14.90;52.70;;;;;;6224588;23;19992;-77
2023/03/15 04:55:12;;;;;;;0.82;0.20;;;14.90;52.60;;;;;;6224527;23;20071;-77
2023/03/15 04:57:38;;;;;;;0.25;0.20;;;14.90;52.70;;;;;;6224549;23;20027;-77
2023/03/15 05:00:08;;;;;;;0.30;0.20;;;14.80;52.60;;;;;;6225187;23;20420;-77
2023/03/15 05:02:34;;;;;;;;;;;14.90;52.70;;;;;;6226894;23;20371;-77
2023/03/15 05:05:00;;;;;;;0.20;0.20;;;14.90;52.70;;;;;;6216791;23;19957;-77
2023/03/15 05:07:26;;;;;;;0.63;0.20;;;14.90;52.70;;;;;;6226443;23;20000;-76
2023/03/15 05:09:51;;;;;;;0.55;0.30;;;14.90;52.80;;;;;;6226454;23;20000;-77
2023/03/15 05:12:17;;;;;;;0.98;0.30;;;14.80;52.80;;;;;;6226400;23;19993;-77
2023/03/15 05:14:43;;;;;;;0.50;0.20;;;14.80;52.80;;;;;;6226365;23;20075;-77
2023/03/15 05:17:08;;;;;;;0.47;0.20;;;14.80;52.80;;;;;;6226418;23;20122;-77
2023/03/15 05:19:34;;;;;;;0.20;0.20;;;14.80;52.80;;;;;;6226212;23;20012;-77
2023/03/15 05:22:02;;;;;;;0.95;0.25;;;14.80;53.50;;;;;;6226181;23;20436;-77
2023/03/15 05:24:29;;;;;;;0.28;0.20;;;14.80;53.50;;;;;;6216565;23;20324;-77
2023/03/15 05:26:55;;;;;;;0.35;0.20;;;14.80;52.70;;;;;;6226440;23;20004;-77
2023/03/15 05:29:21;;;;;;;0.55;0.30;;;14.80;52.90;;;;;;6226285;23;20075;-77
2023/03/15 05:31:47;;;;;;;0.70;0.30;;;14.80;52.80;;;;;;6226254;23;20054;-77
2023/03/15 05:34:14;;;;;;;0.25;0.20;;;14.80;52.90;;;;;;6226217;23;20020;-77
2023/03/15 05:36:40;;;;;;;0.45;0.20;;;14.80;52.80;;;;;;6226349;23;20006;-77
2023/03/15 05:39:06;;;;;;;0.88;0.30;;;14.80;52.80;;;;;;6215926;23;19997;-77
2023/03/15 05:41:32;;;;;;;1.05;0.45;;;14.80;52.90;;;;;;6226073;23;19993;-77
2023/03/15 05:43:58;;;;;;;0.50;0.30;;;14.80;52.90;;;;;;6216452;23;20008;-77
2023/03/15 05:46:24;;;;;;;0.75;0.30;;;14.80;52.90;;;;;;6225929;23;20324;-77
2023/03/15 05:48:50;;;;;;;0.40;0.20;;;14.80;52.90;;;;;;6225975;23;20007;-77
2023/03/15 05:51:15;;;;;;;0.32;0.30;;;14.70;52.80;;;;;;6225995;23;20328;-77
2023/03/15 05:53:41;;;;;;;0.60;0.30;;;14.80;52.90;;;;;;6225922;23;19993;-77
2023/03/15 05:56:07;;;;;;;1.10;0.43;;;14.80;52.90;;;;;;6225935;23;20004;-77
2023/03/15 05:58:33;;;;;;;1.05;0.22;;;14.80;53.60;;;;;;6225875;23;20004;-77
2023/03/15 06:01:02;;;;;;;0.30;0.30;;;14.70;61.40;;;;;;6225835;23;20009;-77
2023/03/15 06:03:30;;;;;;;0.55;0.28;;;14.80;52.90;;;;;;6225664;23;20008;-77
2023/03/15 06:05:56;;;;;;;0.40;0.32;;;14.70;52.80;;;;;;6226024;23;20020;-74
2023/03/15 06:08:22;;;;;;;0.68;0.43;;;14.70;52.80;;;;;;6225928;23;19996;-74
2023/03/15 06:10:47;;;;;;;0.80;0.50;;;14.70;52.80;;;;;;6225743;23;20454;-74
2023/03/15 06:13:13;;;;;;;0.63;0.50;;;14.80;52.90;;;;;;6225789;23;19993;-74
2023/03/15 06:15:39;;;;;;;1.20;0.52;;;14.70;52.80;;;;;;6225803;23;20431;-74
2023/03/15 06:18:04;;;;;;;1.48;0.30;;;14.70;52.80;;;;;;6225808;23;19993;-74
2023/03/15 06:20:30;;;;;;;0.77;0.38;;;14.70;53.40;;;;;;6225563;23;20087;-74
2023/03/15 06:22:56;;;;;;;1.33;0.38;;;14.70;52.80;;;;;;6216193;23;20000;-77
2023/03/15 06:25:22;;;;;;;1.10;0.50;;;14.70;52.80;;;;;;6225715;23;20000;-76
2023/03/15 06:27:48;;;;;;;0.60;0.40;;;14.70;52.80;;;;;;6216004;23;19993;-78
2023/03/15 06:30:14;;;;;;;1.48;0.40;;;14.70;52.80;;;;;;6225636;23;20395;-78
2023/03/15 06:32:39;;;;;;;1.27;0.20;;;14.70;52.80;;;;;;6223426;23;20020;-85
2023/03/15 06:35:06;;;;;;;0.40;0.40;;;14.70;52.80;;;;;;6216534;23;20046;-76
2023/03/15 06:37:32;;;;;;;0.82;0.30;;;14.70;52.80;;;;;;6215324;23;19999;-77
2023/03/15 06:39:57;;;;;;;0.55;0.40;;;14.70;52.90;;;;;;6225667;23;20440;-76
2023/03/15 06:42:23;;;;;;;1.33;0.30;;;14.70;52.80;;;;;;6225606;23;19993;-77
2023/03/15 06:44:48;;;;;;;1.17;0.30;;;14.70;52.80;;;;;;6215341;23;19996;-77
2023/03/15 06:47:14;;;;;;;0.40;0.20;;;14.70;52.90;;;;;;6225494;23;20050;-77
2023/03/15 06:49:40;;;;;;;1.08;0.38;;;14.70;52.90;;;;;;6225475;23;20008;-77
2023/03/15 06:52:06;;;;;;;1.27;0.80;;;14.60;52.90;;;;;;6225443;23;19993;-77
2023/03/15 06:54:32;;;;;;;0.35;0.30;;;14.70;52.90;;;;;;6225454;23;20007;-77
2023/03/15 06:56:58;;;;;;;0.65;0.47;;;14.70;52.90;;;;;;6225467;23;20020;-77
2023/03/15 06:59:24;;;;;;;1.13;0.30;;;14.70;53.00;;;;;;6225453;23;20428;-78
2023/03/15 07:01:50;;;;;;;0.95;0.40;;;14.70;53.00;;;;;;6225110;23;20016;-77
2023/03/15 07:04:16;;;;;;;0.43;0.30;;;14.60;52.90;;;;;;6225417;23;19993;-77
2023/03/15 07:06:41;;;;;;;0.63;0.47;;;14.70;52.90;;;;;;6225240;23;20001;-76
2023/03/15 07:09:08;;;;;;;0.77;0.50;;;14.60;52.90;;;;;;6215284;23;20417;-77
2023/03/15 07:11:34;;;;;;;0.17;0.10;;;14.60;53.00;;;;;;6215552;23;20000;-79
2023/03/15 07:13:59;;;;;;;0.73;0.40;;;14.60;53.00;;;;;;6215421;23;20328;-77
2023/03/15 07:16:26;;;;;;;0.73;0.30;;;14.60;53.10;;;;;;6215521;23;20048;-77
2023/03/15 07:18:54;;;;;;;0.75;0.35;;;14.60;53.10;;;;;;6215333;23;20019;-76
2023/03/15 07:21:20;;;;;;;0.65;0.25;;;14.60;53.00;;;;;;6225180;23;20407;-79
2023/03/15 07:23:45;;;;;;;0.43;0.20;;;14.60;53.10;;;;;;6224770;23;20051;-78
2023/03/15 07:26:11;;;;;;;0.38;0.30;;;14.60;53.10;;;;;;6225015;23;20035;-78
2023/03/15 07:28:36;;;;;;;0.30;0.30;;;14.60;53.10;;;;;;6224994;23;19997;-78
2023/03/15 07:31:05;;;;;;;0.60;0.22;;;14.60;53.10;;;;;;6225182;23;20000;-76
2023/03/15 07:33:32;;;;;;;1.60;0.38;;;14.60;53.10;;;;;;6225009;23;19997;-77
2023/03/15 07:35:58;;;;;;;1.00;0.28;;;14.60;53.20;;;;;;6225249;23;20001;-77
2023/03/15 07:38:27;;;;;;;0.55;0.40;;;14.60;53.30;;;;;;6225152;23;20068;-77
2023/03/15 07:40:53;;;;;;;0.20;0.17;;;14.60;53.30;;;;;;6224883;23;20009;-77
2023/03/15 07:43:19;;;;;;;0.60;0.40;;;14.60;53.30;;;;;;6224973;23;20018;-74
2023/03/15 07:45:45;;;;;;;0.75;0.30;;;14.60;53.30;;;;;;6233078;23;20000;-74
2023/03/15 07:48:10;;;;;;;1.65;0.32;;;14.60;53.30;;;;;;6224879;23;20075;-78
2023/03/15 07:50:36;;;;;;;1.02;0.28;;;14.60;53.30;;;;;;6224840;23;20003;-77
2023/03/15 07:53:03;;;;;;;0.35;0.22;;;14.60;53.40;;;;;;6224938;23;20562;-75
2023/03/15 07:55:30;;;;;;;0.65;0.50;;;14.60;53.60;;;;;;6224999;23;20001;-81
2023/03/15 07:57:55;;;;;;;1.27;0.43;;;14.60;53.70;;;;;;6224715;23;20420;-77
2023/03/15 08:00:21;;;;;;;0.85;0.30;;;14.60;53.80;;;;;;6225066;23;20012;-88
2023/03/15 08:02:48;;;;;;;0.50;0.25;;;14.50;53.70;;;;;;6214918;23;20066;-87
2023/03/15 08:05:14;;;;;;;2.15;0.30;;;14.60;53.90;;;;;;6215071;23;20051;-83
2023/03/15 08:07:40;;;;;;;0.30;0.20;;;14.50;54.00;;;;;;6215004;23;20007;-81
2023/03/15 08:10:07;;;;;;;1.08;0.35;;;14.60;54.00;;;;;;6214995;23;20001;-78
2023/03/15 08:12:34;;;;;;;1.38;0.43;;;14.60;54.10;;;;;;6214732;23;20499;-78
2023/03/15 08:14:59;;;;;;;2.72;0.40;;;14.50;54.20;;;;;;6224712;23;20005;-79
2023/03/15 08:17:25;;;;;;;2.38;0.63;;;14.50;54.30;;;;;;6215048;23;20051;-77
2023/03/15 08:19:51;;;;;;;0.85;0.40;;;14.50;54.40;;;;;;6224535;23;20000;-76
2023/03/15 08:22:16;;;;;;;0.88;0.50;;;14.60;54.60;;;;;;6214956;23;20000;-77
2023/03/15 08:24:42;;;;;;;0.57;0.40;;;14.60;54.60;;;;;;6224743;23;19992;-76
2023/03/15 08:27:08;;;;;;;1.83;0.50;;;14.60;54.60;;;;;;6224520;23;20000;-77
2023/03/15 08:29:34;;;;;;;0.63;0.30;;;14.50;54.60;;;;;;6224685;23;19996;-77
2023/03/15 08:31:59;;;;;;;1.85;0.40;;;14.60;54.60;;;;;;6224602;23;20032;-77
2023/03/15 08:34:25;;;;;;;1.42;0.57;;;14.60;54.60;;;;;;6223970;23;19997;-77
2023/03/15 08:36:51;;;;;;;1.67;0.43;;;14.60;54.70;;;;;;6213269;23;20062;-77
2023/03/15 08:39:17;;;;;;;1.30;0.52;;;14.60;54.80;;;;;;6214708;23;20008;-77
2023/03/15 08:41:44;;;;;;;1.00;0.50;;;14.70;54.70;;;;;;6214308;23;20363;-77
2023/03/15 08:44:10;;;;;;;1.50;0.40;;;14.70;54.80;;;;;;6214583;23;20020;-77
2023/03/15 08:46:36;;;;;;;2.40;0.60;;;14.70;54.70;;;;;;6214302;23;20467;-77
2023/03/15 08:49:02;;;;;;;1.55;0.63;;;14.70;54.80;;;;;;6214783;23;20000;-77
2023/03/15 08:51:29;;;;;;;4.18;0.50;;;14.70;54.80;;;;;;6224510;23;20000;-77
2023/03/15 08:53:55;;;;;;;1.27;0.70;;;14.70;54.80;;;;;;6224445;23;19996;-76
2023/03/15 08:56:21;;;;;;;1.77;0.60;;;14.80;54.80;;;;;;6224588;23;20490;-77
2023/03/15 08:58:47;;;;;;;3.90;0.75;;;14.70;54.80;;;;;;6224517;23;20393;-78
2023/03/15 09:01:13;;;;;;;1.90;0.73;;;14.90;64.00;;;;;;6224219;23;20439;-77
2023/03/15 09:03:41;;;;;;;1.88;0.60;;;14.80;55.00;;;;;;6224316;23;20135;-77
2023/03/15 09:06:07;;;;;;;0.82;0.40;;;14.80;54.80;;;;;;6214252;23;20001;-77
2023/03/15 09:08:33;;;;;;;3.15;0.60;;;14.90;55.10;;;;;;6214869;23;20316;-77
2023/03/15 09:11:00;;;;;;;1.35;0.50;;;14.90;54.90;;;;;;6214551;23;19996;-76
2023/03/15 09:13:28;;;;;;;1.60;0.50;;;14.90;54.80;;;;;;6224460;23;20438;-79
2023/03/15 09:15:55;;;;;;;2.05;0.60;;;15.00;55.00;;;;;;6224486;23;20001;-78
2023/03/15 09:18:22;;;;;;;2.08;0.90;;;15.00;54.90;;;;;;6225367;23;19996;-84
2023/03/15 09:20:48;;;;;;;1.80;0.50;;;15.00;55.00;;;;;;6225952;23;20424;-81
2023/03/15 09:23:14;;;;;;;2.53;0.57;;;15.00;54.90;;;;;;6224326;23;20076;-81
2023/03/15 09:25:40;;;;;;;1.77;0.50;;;15.10;55.10;;;;;;6224579;23;20004;-85
2023/03/15 09:28:08;;;;;;;0.85;0.60;;;15.10;54.90;;;;;;6224386;23;20024;-83
2023/03/15 09:30:35;;;;;;;2.17;0.50;;;15.20;55.00;;;;;;6224414;23;20001;-80
2023/03/15 09:33:01;;;;;;;1.75;0.63;;;15.20;55.00;;;;;;6224360;23;20072;-80
2023/03/15 09:35:27;;;;;;;2.47;0.50;;;15.20;55.00;;;;;;6224239;23;20035;-80
2023/03/15 09:37:53;;;;;;;1.48;0.55;;;15.20;55.00;;;;;;6214654;23;19996;-81
2023/03/15 09:40:22;;;;;;;1.77;0.60;;;15.30;55.00;;;;;;6214442;23;20032;-81
2023/03/15 09:43:06;;;;;;;3.08;0.60;;;15.30;54.90;;;;;;6224499;23;19997;-80
2023/03/15 09:45:50;;;;;;;1.48;0.70;;;15.30;55.00;;;;;;6215060;23;20431;-79
2023/03/15 09:48:31;;;;;;;1.55;0.50;;;15.40;55.00;;;;;;6225986;23;20297;-80
2023/03/15 09:51:02;;;;;;;1.65;0.60;;;15.40;55.00;;;;;;6226158;23;20078;-80
2023/03/15 09:53:46;;;;;;;2.00;0.70;;;15.50;55.00;;;;;;6216185;23;20000;-79
2023/03/15 09:56:23;;;;;;;0.50;0.30;;;15.50;54.90;;;;;;6215757;23;20028;-79
2023/03/15 09:58:52;;;;;;;2.85;0.50;;;15.50;55.00;;;;;;6216383;23;20371;-79
2023/03/15 10:01:24;;;;;;;2.53;0.50;;;15.50;55.00;;;;;;6215838;23;20009;-78
2023/03/15 10:03:52;;;;;;;2.42;0.90;;;15.60;55.00;;;;;;6226010;23;20016;-78
2023/03/15 10:06:21;;;;;;;2.15;0.73;;;15.60;54.90;;;;;;6225867;23;20441;-78
2023/03/15 10:08:49;;;;;;;2.25;0.63;;;15.70;54.90;;;;;;6226032;23;19992;-80
2023/03/15 10:11:22;;;;;;;2.75;0.68;;;15.70;54.80;;;;;;6215736;23;19999;-82
2023/03/15 10:14:15;;;;;;;4.60;0.63;;;15.80;54.80;;;;;;6225966;23;19996;-76
2023/03/15 10:16:46;;;;;;;2.25;0.65;;;15.90;54.70;;;;;;6216148;23;20443;-78
2023/03/15 10:19:16;;;;;;;1.05;0.80;;;15.90;54.70;;;;;;6215728;23;20523;-79
2023/03/15 10:22:10;;;;;;;2.05;0.75;;;16.00;54.60;;;;;;6215840;23;20068;-81
2023/03/15 10:25:32;;;;;;;2.03;0.90;;;16.10;54.40;;;;;;6216150;23;20367;-81
2023/03/15 10:28:12;;;;;;;2.75;1.20;;;16.20;54.00;;;;;;6153309;23;20002;-83
2023/03/15 10:30:45;;;;;;;1.92;0.75;;;16.20;54.20;;;;;;6153154;23;20008;-78
2023/03/15 10:33:31;;;;;;;1.88;0.73;;;16.30;54.20;;;;;;6199610;23;20082;-77
2023/03/15 10:35:58;;;;;;;3.38;0.82;;;16.30;54.60;;;;;;6215803;23;20428;-75
2023/03/15 10:38:25;;;;;;;1.48;0.47;;;16.40;54.00;;;;;;6215934;23;20008;-76
2023/03/15 10:40:58;;;;;;;1.92;0.70;;;16.30;54.80;;;;;;6215783;23;20004;-76
2023/03/15 10:43:38;;;;;;;3.70;0.80;;;16.30;54.40;;;;;;6215799;23;20000;-76
2023/03/15 10:46:22;;;;;;;2.08;0.90;;;16.30;54.60;;;;;;6215688;23;20000;-76
2023/03/15 10:48:55;;;;;;;3.60;0.93;;;16.20;54.70;;;;;;6215747;23;19997;-75
2023/03/15 10:51:37;;;;;;;1.80;0.50;;;16.20;54.70;;;;;;6215770;23;20012;-77
2023/03/15 10:54:10;;;;;;;1.63;0.70;;;16.30;54.60;;;;;;6215816;23;20003;-77
2023/03/15 10:57:02;;;;;;;3.97;1.20;;;16.40;54.90;;;;;;6215329;23;20107;-77
2023/03/15 10:59:32;;;;;;;0.85;0.52;;;16.50;54.50;;;;;;6215198;23;20657;-76
2023/03/15 11:02:17;;;;;;;3.70;0.60;;;16.70;54.50;;;;;;6215203;23;20009;-76
2023/03/15 11:04:58;;;;;;;3.70;0.68;;;16.70;54.30;;;;;;6215704;23;20005;-78
2023/03/15 11:07:24;;;;;;;1.98;0.73;;;16.80;54.10;;;;;;6215410;23;19997;-76
2023/03/15 11:10:02;;;;;;;1.38;0.75;;;16.90;54.10;;;;;;6215671;23;19997;-78
2023/03/15 11:12:32;;;;;;;1.80;0.70;;;17.00;54.10;;;;;;6215337;23;20003;-77
2023/03/15 11:15:12;;;;;;;3.72;0.60;;;17.10;53.90;;;;;;6215705;23;19993;-76
2023/03/15 11:17:46;;;;;;;2.13;0.80;;;17.10;53.70;;;;;;6215480;23;20027;-77
2023/03/15 11:20:33;;;;;;;2.78;0.98;;;17.20;53.80;;;;;;6215116;23;20004;-78
2023/03/15 11:23:14;;;;;;;2.08;0.90;;;17.30;53.50;;;;;;6215283;23;20007;-76
2023/03/15 11:25:40;;;;;;;0.60;0.50;;;17.30;53.60;;;;;;6225356;23;20473;-78
2023/03/15 11:28:14;;;;;;;1.80;0.75;;;17.40;53.70;;;;;;6225256;23;20000;-78
2023/03/15 11:30:40;;;;;;;2.30;0.80;;;17.50;53.50;;;;;;6225224;23;20008;-78
2023/03/15 11:33:08;;;;;;;2.20;0.60;;;17.50;53.50;;;;;;6225170;23;20424;-78
2023/03/15 11:35:48;;;;;;;1.58;0.65;;;17.60;53.30;;;;;;6225247;23;20328;-78
2023/03/15 11:38:27;;;;;;;;;;;17.60;53.10;;;;;;6214042;23;20499;-77
2023/03/15 11:40:55;;;;;;;1.35;0.60;;;17.70;53.00;;;;;;6215018;23;19908;-80
2023/03/15 11:43:30;;;;;;;2.10;0.70;;;17.70;53.10;;;;;;6225138;23;20305;-79
2023/03/15 11:46:00;;;;;;;3.67;0.52;;;17.70;53.10;;;;;;6225082;23;19993;-77
2023/03/15 11:49:09;;;;;;;2.33;0.93;;;17.80;53.10;;;;;;6225210;23;19996;-79
2023/03/15 11:51:35;;;;;;;1.63;0.60;;;17.90;52.80;;;;;;6214981;23;20011;-78
2023/03/15 11:54:17;;;;;;;1.85;0.80;;;18.00;52.80;;;;;;6224992;23;19997;-78
2023/03/15 11:56:42;;;;;;;2.58;0.63;;;18.00;52.70;;;;;;6224949;23;20379;-80
2023/03/15 11:59:11;;;;;;;4.90;0.63;;;18.10;52.90;;;;;;6224771;23;19992;-77
2023/03/15 12:01:42;;;;;;;1.20;0.60;;;18.10;52.80;;;;;;6224887;23;20004;-77
2023/03/15 12:04:26;;;;;;;1.20;0.52;;;18.20;52.70;;;;;;6224931;23;19997;-76
2023/03/15 12:06:53;;;;;;;0.85;0.40;;;18.20;52.40;;;;;;6224699;23;20305;-76
2023/03/15 12:09:31;;;;;;;1.30;0.70;;;18.30;52.60;;;;;;6224790;23;19996;-76
2023/03/15 12:11:59;;;;;;;1.00;0.60;;;18.40;52.40;;;;;;6224774;23;20517;-76
2023/03/15 12:14:28;;;;;;;1.95;0.90;;;18.40;52.30;;;;;;6224861;23;19996;-76
2023/03/15 12:17:27;;;;;;;1.50;0.65;;;18.50;52.20;;;;;;6224848;23;20004;-76
2023/03/15 12:20:07;;;;;;;1.20;0.70;;;18.60;52.00;;;;;;6224525;23;20008;-76
2023/03/15 12:22:34;;;;;;;1.02;0.60;;;18.60;51.80;;;;;;6224763;23;20007;-76
2023/03/15 12:25:36;;;;;;;1.55;0.60;;;18.70;51.80;;;;;;6224562;23;20000;-76
2023/03/15 12:28:17;;;;;;;0.68;0.57;;;18.70;51.60;;;;;;6202848;23;20062;-76
2023/03/15 12:30:50;;;;;;;2.30;0.60;;;18.80;51.50;;;;;;6224792;23;20077;-77
2023/03/15 12:33:18;;;;;;;1.05;0.40;;;18.80;51.40;;;;;;6224704;23;20305;-78
2023/03/15 12:35:45;;;;;;;1.88;0.60;;;18.90;51.20;;;;;;6224572;23;20000;-77
2023/03/15 12:38:20;;;;;;;2.25;0.77;;;18.90;51.10;;;;;;6214793;23;20449;-78
2023/03/15 12:40:57;;;;;;;0.68;0.45;;;19.00;50.90;;;;;;6214783;23;20009;-77
2023/03/15 12:43:35;;;;;;;1.45;0.50;;;19.00;50.60;;;;;;6214559;23;19997;-78
2023/03/15 12:46:01;;;;;;;1.13;0.57;;;19.10;50.60;;;;;;6214641;23;20028;-78
2023/03/15 12:48:28;;;;;;;0.82;0.40;;;19.10;50.80;;;;;;6214947;23;20004;-77
2023/03/15 12:50:56;;;;;;;1.02;0.47;;;19.10;50.80;;;;;;6214736;23;19996;-77
2023/03/15 12:53:35;;;;;;;2.53;0.82;;;19.10;50.90;;;;;;6224564;23;20008;-77
2023/03/15 12:56:16;;;;;;;1.25;0.73;;;19.10;50.80;;;;;;6214718;23;20324;-77
2023/03/15 12:58:45;;;;;;;1.67;0.40;;;19.10;50.80;;;;;;6224511;23;20000;-77